MSC Vanessa — HOWD — position and weather

sailwx.info

Track history (hours):
 
Tides and Currents Weather Stations Pressure Air Temp Water Temp Dewpoint Dewpoint Depression Visibility Wind Speed Wind Dir Waves Ship Positions

MSC Vanessa

Last reported at 2014-Aug-14 01:33 UTC. Time now 2014-Aug-20 20:32 UTC.
Position S 12°60' W 038°08'.

Length 300 m; draft 13.5 m.

Type: Ship (hazmat cat A). MMSI: 356946000.

Date/timePositionNaut miles runAvg speedWind from/ knotsBaromVisibWave heightAir tempDewpointWater temp
2014-Aug-14 01:33S 12°60' W 038°08'1717.2
2014-Aug-14 00:33S 13°07' W 038°24'1212.0
2014-Aug-13 23:33S 13°00' W 038°33'4 4.1
2014-Aug-13 22:33S 12°57' W 038°30'0 0.0
2014-Aug-13 21:33S 12°57' W 038°30'0 0.0
2014-Aug-13 20:33S 12°57' W 038°30'0 0.0
2014-Aug-13 19:33S 12°57' W 038°30'0 0.0
2014-Aug-13 18:33S 12°57' W 038°30'  
2014-Aug-10 21:15S 24°17' W 046°19'1217.4
2014-Aug-10 20:33S 24°06' W 046°22'9 8.7
2014-Aug-10 19:33S 23°58' W 046°17'5 0.4
2014-Aug-10 09:25S 23°55' W 046°21'0 0.0
2014-Aug-10 08:25S 23°55' W 046°21'0 0.0
2014-Aug-10 07:31S 23°55' W 046°21'0 0.0
2014-Aug-10 05:19S 23°55' W 046°21'0 0.0
2014-Aug-10 03:31S 23°55' W 046°21'0 0.0
2014-Aug-09 19:07S 23°55' W 046°21'0 0.1
2014-Aug-09 18:33S 23°55' W 046°21'5 4.8
2014-Aug-09 17:34S 23°59' W 046°17'8 8.2
2014-Aug-09 16:33S 24°06' W 046°22'2 1.7
2014-Aug-09 15:33S 24°07' W 046°22'0 0.1
2014-Aug-09 14:25S 24°07' W 046°21'0 0.0
2014-Aug-09 13:07S 24°07' W 046°21'0 0.0
2014-Aug-09 12:25S 24°07' W 046°21'0 0.0
2014-Aug-09 10:31S 24°07' W 046°21'0 0.0
2014-Aug-09 09:25S 24°07' W 046°21'0 0.0
2014-Aug-09 08:19S 24°07' W 046°21'0 0.0
2014-Aug-09 07:25S 24°07' W 046°21'0 0.0
2014-Aug-09 06:22S 24°07' W 046°21'0 0.0
2014-Aug-09 05:31S 24°07' W 046°21'0 0.0
2014-Aug-08 23:25S 24°07' W 046°21'0 0.0
2014-Aug-08 22:04S 24°07' W 046°21'0 0.0
2014-Aug-08 21:28S 24°07' W 046°21'0 0.0
2014-Aug-08 20:07S 24°07' W 046°21'0 0.0
2014-Aug-08 19:31S 24°07' W 046°21'0 0.0
2014-Aug-08 18:10S 24°07' W 046°21'0 0.0
2014-Aug-08 17:25S 24°07' W 046°21'0 0.0
2014-Aug-08 16:25S 24°07' W 046°21'0 0.0
2014-Aug-08 14:19S 24°07' W 046°21'0 0.0
2014-Aug-08 13:25S 24°07' W 046°21'0 0.0
2014-Aug-08 12:28S 24°07' W 046°21'0 0.0
2014-Aug-08 11:31S 24°07' W 046°21'0 0.0
2014-Aug-08 10:16S 24°07' W 046°21'0 0.0
2014-Aug-08 09:31S 24°07' W 046°21'0 0.0
2014-Aug-08 06:25S 24°07' W 046°21'0 0.0
2014-Aug-08 05:19S 24°07' W 046°21'0 0.0
2014-Aug-08 04:19S 24°07' W 046°21'3 0.9
2014-Aug-08 01:27S 24°09' W 046°22'6917.2
2014-Aug-07 21:27S 25°11' W 046°56'1717.8
2014-Aug-07 20:29S 25°24' W 047°08'  
Track history (hours):
 
Tides and Currents Weather Stations Pressure Air Temp Water Temp Dewpoint Dewpoint Depression Visibility Wind Speed Wind Dir Waves Ship Positions

MSC Vanessa

Last reported at 2014-Aug-14 01:33 UTC. Time now 2014-Aug-20 20:32 UTC.
Position S 12°60' W 038°08'.

Length 300 m; draft 13.5 m.

Type: Ship (hazmat cat A). MMSI: 356946000.

Date/timePositionNaut miles runAvg speedWind from/ knotsBaromVisibWave heightAir tempDewpointWater temp
2014-Aug-14 01:33S 12°60' W 038°08'1717.2
2014-Aug-14 00:33S 13°07' W 038°24'1212.0
2014-Aug-13 23:33S 13°00' W 038°33'4 4.1
2014-Aug-13 22:33S 12°57' W 038°30'0 0.0
2014-Aug-13 21:33S 12°57' W 038°30'0 0.0
2014-Aug-13 20:33S 12°57' W 038°30'0 0.0
2014-Aug-13 19:33S 12°57' W 038°30'0 0.0
2014-Aug-13 18:33S 12°57' W 038°30'  
2014-Aug-10 21:15S 24°17' W 046°19'1217.4
2014-Aug-10 20:33S 24°06' W 046°22'9 8.7
2014-Aug-10 19:33S 23°58' W 046°17'5 0.4
2014-Aug-10 09:25S 23°55' W 046°21'0 0.0
2014-Aug-10 08:25S 23°55' W 046°21'0 0.0
2014-Aug-10 07:31S 23°55' W 046°21'0 0.0
2014-Aug-10 05:19S 23°55' W 046°21'0 0.0
2014-Aug-10 03:31S 23°55' W 046°21'0 0.0
2014-Aug-09 19:07S 23°55' W 046°21'0 0.1
2014-Aug-09 18:33S 23°55' W 046°21'5 4.8
2014-Aug-09 17:34S 23°59' W 046°17'8 8.2
2014-Aug-09 16:33S 24°06' W 046°22'2 1.7
2014-Aug-09 15:33S 24°07' W 046°22'0 0.1
2014-Aug-09 14:25S 24°07' W 046°21'0 0.0
2014-Aug-09 13:07S 24°07' W 046°21'0 0.0
2014-Aug-09 12:25S 24°07' W 046°21'0 0.0
2014-Aug-09 10:31S 24°07' W 046°21'0 0.0
2014-Aug-09 09:25S 24°07' W 046°21'0 0.0
2014-Aug-09 08:19S 24°07' W 046°21'0 0.0
2014-Aug-09 07:25S 24°07' W 046°21'0 0.0
2014-Aug-09 06:22S 24°07' W 046°21'0 0.0
2014-Aug-09 05:31S 24°07' W 046°21'0 0.0
2014-Aug-08 23:25S 24°07' W 046°21'0 0.0
2014-Aug-08 22:04S 24°07' W 046°21'0 0.0
2014-Aug-08 21:28S 24°07' W 046°21'0 0.0
2014-Aug-08 20:07S 24°07' W 046°21'0 0.0
2014-Aug-08 19:31S 24°07' W 046°21'0 0.0
2014-Aug-08 18:10S 24°07' W 046°21'0 0.0
2014-Aug-08 17:25S 24°07' W 046°21'0 0.0
2014-Aug-08 16:25S 24°07' W 046°21'0 0.0
2014-Aug-08 14:19S 24°07' W 046°21'0 0.0
2014-Aug-08 13:25S 24°07' W 046°21'0 0.0
2014-Aug-08 12:28S 24°07' W 046°21'0 0.0
2014-Aug-08 11:31S 24°07' W 046°21'0 0.0
2014-Aug-08 10:16S 24°07' W 046°21'0 0.0
2014-Aug-08 09:31S 24°07' W 046°21'0 0.0
2014-Aug-08 06:25S 24°07' W 046°21'0 0.0
2014-Aug-08 05:19S 24°07' W 046°21'0 0.0
2014-Aug-08 04:19S 24°07' W 046°21'3 0.9
2014-Aug-08 01:27S 24°09' W 046°22'6917.2
2014-Aug-07 21:27S 25°11' W 046°56'1717.8
2014-Aug-07 20:29S 25°24' W 047°08'  

Dump ship's entire track history